Edmonds, Washington
Current Conditions -  °F | °C
As of 12:53 AM on Thursday 23 Oct 2014 (Local Time) from KPAE Reporting Station
Clear Clear  
Wind Chill: 12°   Ceiling: Unl
Heat Index: 12°   Visibility: 10mi
Dew Point:   Wind: 18mph
Humidity: 86%   Direction: 160°SSE
Pressure: 29.7"   Gusts: 29mph
Location:  47.81°N, 122.37°W
Report Text: KPAE 230753Z AUTO 16016G25KT 10SM CLR 12/09 A2970 RMK AO2 PK WND 18027/0714 RAE0656 SLP057 P0000 T01170094 401330117
Loading
Personal Weather Stations






























Interactive Weather Map
Tropical Storm Tracking
New forecast layout! Learn more

10-Day Weather Forecast

Advertisements
Track Severe Weather on mobile